METAR Data
IDs: Format: Raw Decoded Include TAF

Data at: 1245 UTC 16 Jul 2019

KSRR 161235Z AUTO 31004KT 10SM BKN100 20/08 A3028 RMK AO2
KSRR 161215Z AUTO 28006KT 10SM FEW100 19/09 A3027 RMK AO2
KSRR 161155Z AUTO 29007KT 10SM FEW110 18/09 A3027 RMK AO2
KSRR 161135Z AUTO 29007KT 10SM BKN110 18/09 A3026 RMK AO2
KSRR 161115Z AUTO 33004KT 10SM BKN100 18/09 A3026 RMK AO2
KSRR 161055Z AUTO 00000KT 10SM CLR 18/09 A3025 RMK AO2
KSRR 161035Z AUTO 33003KT 10SM FEW100 19/09 A3025 RMK AO2
KSRR 161015Z AUTO 30003KT 10SM FEW110 19/08 A3024 RMK AO2
KSRR 160955Z AUTO 23005KT 10SM BKN110 19/08 A3024 RMK AO2
KSRR 160935Z AUTO 22006KT 10SM BKN110 20/09 A3025 RMK AO2
KSRR 160915Z AUTO 19004KT 10SM BKN110 19/09 A3025 RMK AO2
KSRR 160855Z AUTO 15003KT 10SM OVC110 19/10 A3025 RMK AO2
KSRR 160755Z AUTO 08005KT 10SM OVC110 18/12 A3027 RMK AO2
KSRR 160735Z AUTO 10003KT 10SM OVC120 20/10 A3028 RMK AO2
KSRR 160715Z AUTO 33003KT 10SM FEW060 BKN120 19/13 A3029 RMK AO2
KSRR 160655Z AUTO 18011KT 10SM FEW022 SCT050 BKN065 19/10 A3028 RMK AO2
KSRR 160635Z AUTO 00000KT 10SM FEW016 SCT060 BKN075 19/10 A3030 RMK AO2
KSRR 160615Z AUTO 02004KT 10SM SCT075 OVC090 19/12 A3031 RMK AO2
KSRR 160555Z AUTO 22010KT 10SM FEW070 OVC100 19/10 A3030 RMK AO2
KSRR 160535Z AUTO 21010KT 10SM SCT070 OVC100 19/11 A3030 RMK AO2
KSRR 160515Z AUTO 23009KT 10SM OVC100 18/13 A3030 RMK AO2
KSRR 160455Z AUTO 20006KT 10SM FEW055 SCT070 OVC110 18/13 A3030 RMK AO2
KSRR 160435Z AUTO 06003KT 10SM BKN060 OVC100 18/13 A3031 RMK AO2
KSRR 160415Z AUTO 05004KT 10SM -RA FEW025 SCT060 OVC100 18/13 A3032 RMK AO2
KSRR 160355Z AUTO 03007G15KT 10SM -RA FEW019 SCT049 BKN060 20/12 A3032 RMK AO2
KSRR 160335Z AUTO 36013G20KT 10SM FEW041 OVC085 21/09 A3032 RMK AO2
KSRR 160315Z AUTO 32013G23KT 10SM FEW045 BKN085 OVC110 20/10 A3031 RMK AO2
KSRR 160255Z AUTO 31017G27KT 10SM FEW041 SCT065 BKN085 20/10 A3030 RMK AO2
KSRR 160235Z AUTO 30023G31KT 230V310 10SM SCT085 OVC110 24/08 A3027 RMK AO2
KSRR 160215Z AUTO 13005KT 10SM SCT110 25/08 A3025 RMK AO2
KSRR 160155Z AUTO 13006KT 10SM CLR 26/08 A3025 RMK AO2
KSRR 160135Z AUTO 13008KT 10SM CLR 27/08 A3024 RMK AO2
KSRR 160115Z AUTO 12011KT 10SM CLR 27/08 A3023 RMK AO2
KSRR 160055Z AUTO 12013G18KT 10SM CLR 27/08 A3023 RMK AO2
KSRR 160035Z AUTO 12011KT 10SM CLR 28/08 A3023 RMK AO2
KSRR 160015Z AUTO 11013KT 10SM CLR 28/08 A3023 RMK AO2
KSRR 152355Z AUTO 13017KT 10SM CLR 29/08 A3023 RMK AO2
KSRR 152335Z AUTO 11012KT 090V150 10SM CLR 29/07 A3022 RMK AO2
KSRR 152315Z AUTO 11007KT 10SM CLR 29/07 A3023 RMK AO2
KSRR 152255Z AUTO 16009G15KT 110V170 10SM CLR 29/07 A3024 RMK AO2
KSRR 152235Z AUTO 12014KT 10SM CLR 29/07 A3025 RMK AO2
KSRR 152215Z AUTO 13014G19KT 10SM CLR 29/08 A3026 RMK AO2
KSRR 152155Z AUTO 15012G18KT 10SM CLR 28/07 A3026 RMK AO2
KSRR 152135Z AUTO 13010G14KT 10SM CLR 28/07 A3027 RMK AO2
KSRR 152115Z AUTO 16011G18KT 10SM CLR 28/09 A3027 RMK AO2
KSRR 152055Z AUTO 13014KT 10SM FEW095 27/09 A3029 RMK AO2
KSRR 152035Z AUTO 16018KT 10SM BKN095 BKN120 27/08 A3028 RMK AO2
KSRR 152015Z AUTO 14016KT 10SM BKN095 28/08 A3029 RMK AO2
KSRR 151955Z AUTO 31003KT 10SM CLR 28/05 A3029 RMK AO2
KSRR 151935Z AUTO 31009KT 10SM CLR 28/05 A3029 RMK AO2
KSRR 151915Z AUTO 35009G17KT 10SM CLR 29/05 A3029 RMK AO2
KSRR 151855Z AUTO 29010G17KT 270V330 10SM CLR 30/06 A3029 RMK AO2
KSRR 151835Z AUTO 32011G20KT 10SM CLR 30/06 A3029 RMK AO2
KSRR 151815Z AUTO 33004KT 10SM CLR 29/07 A3030 RMK AO2
KSRR 151755Z AUTO 02005KT 10SM CLR 28/07 A3030 RMK AO2
KSRR 151735Z AUTO 00000KT 10SM CLR 28/07 A3031 RMK AO2
KSRR 151715Z AUTO 00000KT 10SM CLR 28/08 A3031 RMK AO2
KSRR 151655Z AUTO 35009KT 320V030 10SM CLR 28/08 A3031 RMK AO2
KSRR 151635Z AUTO 04007KT 350V050 10SM CLR 27/08 A3031 RMK AO2
KSRR 151615Z AUTO 32009KT 10SM CLR 27/08 A3031 RMK AO2
KSRR 151555Z AUTO 31003KT 10SM CLR 25/08 A3032 RMK AO2
KSRR 151535Z AUTO 04005KT 10SM CLR 24/09 A3033 RMK AO2
KSRR 151515Z AUTO 04003KT 10SM CLR 24/09 A3033 RMK AO2
KSRR 151455Z AUTO 18003KT 10SM CLR 23/07 A3033 RMK AO2
KSRR 151435Z AUTO 23003KT 10SM CLR 22/08 A3034 RMK AO2
KSRR 151415Z AUTO 25005KT 10SM CLR 21/08 A3034 RMK AO2
KSRR 151355Z AUTO 28004KT 10SM CLR 19/08 A3034 RMK AO2
KSRR 151335Z AUTO 00000KT 10SM CLR 18/08 A3034 RMK AO2
KSRR 151315Z AUTO 00000KT 10SM CLR 18/08 A3034 RMK AO2
KSRR 151255Z AUTO 30005KT 10SM CLR 17/08 A3034 RMK AO2
KSRR 151235Z AUTO 28006KT 10SM CLR 15/08 A3033 RMK AO2
KSRR 151215Z AUTO 30004KT 10SM CLR 16/08 A3034 RMK AO2
KSRR 151155Z AUTO 31006KT 10SM CLR 16/08 A3033 RMK AO2
KSRR 151135Z AUTO 32005KT 10SM CLR 15/08 A3033 RMK AO2
KSRR 151115Z AUTO 00000KT 10SM CLR 14/09 A3032 RMK AO2
KSRR 151055Z AUTO 00000KT 10SM CLR 17/08 A3032 RMK AO2
KSRR 151035Z AUTO 23006KT 10SM CLR 16/08 A3031 RMK AO2
KSRR 151015Z AUTO 21006KT 10SM CLR 15/08 A3031 RMK AO2
KSRR 150955Z AUTO 15005KT 10SM CLR 16/08 A3031 RMK AO2
KSRR 150935Z AUTO 23003KT 10SM CLR 18/08 A3031 RMK AO2
KSRR 150915Z AUTO 00000KT 10SM CLR 18/08 A3032 RMK AO2
KSRR 150855Z AUTO 25003KT 10SM CLR 19/08 A3032 RMK AO2
KSRR 150835Z AUTO 24003KT 10SM CLR 19/08 A3033 RMK AO2
KSRR 150815Z AUTO 00000KT 10SM CLR 19/08 A3033 RMK AO2
KSRR 150755Z AUTO 00000KT 10SM CLR 19/08 A3034 RMK AO2
KSRR 150735Z AUTO 26005KT 10SM CLR 19/09 A3034 RMK AO2
KSRR 150715Z AUTO 26004KT 7SM CLR 19/08 A3034 RMK AO2
KSRR 150655Z AUTO 00000KT 10SM CLR 19/08 A3034 RMK AO2
KSRR 150635Z AUTO 29004KT 10SM CLR 20/08 A3034 RMK AO2
KSRR 150615Z AUTO 00000KT 10SM CLR 20/09 A3034 RMK AO2
KSRR 150555Z AUTO 00000KT 10SM CLR 20/09 A3035 RMK AO2
KSRR 150535Z AUTO 19004KT 10SM CLR 20/09 A3034 RMK AO2
KSRR 150515Z AUTO 10SM CLR 20/08 A3034 RMK AO2
KSRR 150455Z AUTO 14006KT 10SM CLR 20/08 A3034 RMK AO2
KSRR 150435Z AUTO 10SM CLR 20/09 A3035 RMK AO2
KSRR 150355Z AUTO 15006KT 10SM CLR 21/09 A3034 RMK AO2
KSRR 150335Z AUTO 17006KT 10SM CLR 22/09 A3033 RMK AO2
KSRR 150315Z AUTO 15007KT 10SM CLR 22/09 A3033 RMK AO2
KSRR 150255Z AUTO 13005KT 10SM CLR 23/09 A3032 RMK AO2
KSRR 150235Z AUTO 12005KT 10SM CLR 23/09 A3032 RMK AO2
KSRR 150215Z AUTO 12007KT 10SM CLR 24/09 A3032 RMK AO2
KSRR 150155Z AUTO 12007KT 10SM CLR 25/09 A3031 RMK AO2
KSRR 150135Z AUTO 12009KT 10SM CLR 25/09 A3031 RMK AO2
KSRR 150115Z AUTO 12008KT 10SM CLR 25/09 A3031 RMK AO2
KSRR 150055Z AUTO 11007KT 10SM CLR 26/09 A3031 RMK AO2